Time;durP1;ratioP1;P1;durP2;ratioP2;P2;SDS_P1;SDS_P2;PMS_P1;PMS_P2;Temp;Humidity;BMP_temperature;BMP_pressure;BME280_temperature;BME280_humidity;BME280_pressure;Samples;Min_cycle;Max_cycle;Signal;HPM_P1;HPM_P2
2021/12/04 00:02:00;;;;;;;0.00;0.00;;;4.00;83.00;;;;;;4116895;28;20043;-55
2021/12/04 00:04:37;;;;;;;0.00;0.00;;;4.00;83.30;;;;;;4103474;28;20051;-57
2021/12/04 00:07:00;;;;;;;0.00;0.00;;;4.00;83.40;;;;;;4117382;28;20042;-59
2021/12/04 00:09:22;;;;;;;0.00;0.00;;;4.20;83.20;;;;;;4117129;28;20047;-55
2021/12/04 00:11:53;;;;;;;0.00;0.00;;;4.20;83.00;;;;;;4116805;28;20439;-59
2021/12/04 00:14:15;;;;;;;0.00;0.00;;;4.20;82.80;;;;;;4116970;28;20058;-61
2021/12/04 00:16:38;;;;;;;0.00;0.00;;;4.30;82.80;;;;;;4117092;28;20039;-56
2021/12/04 00:19:01;;;;;;;0.00;0.00;;;4.30;83.00;;;;;;4117277;28;20041;-61
2021/12/04 00:21:23;;;;;;;0.00;0.00;;;4.30;82.90;;;;;;4116745;28;20061;-59
2021/12/04 00:23:46;;;;;;;0.00;0.00;;;4.40;83.10;;;;;;4116891;28;20050;-55
2021/12/04 00:26:08;;;;;;;0.00;0.00;;;4.40;83.40;;;;;;4116831;28;20046;-61
2021/12/04 00:28:31;;;;;;;0.00;0.00;;;4.30;84.10;;;;;;4116542;28;20489;-59
2021/12/04 00:30:53;;;;;;;0.00;0.00;;;4.10;85.30;;;;;;4130187;28;20459;-57
2021/12/04 00:33:19;;;;;;;0.00;0.00;;;3.90;86.00;;;;;;4116869;28;20047;-57
2021/12/04 00:35:47;;;;;;;0.00;0.00;;;3.80;86.50;;;;;;4116509;28;20043;-58
2021/12/04 00:51:18;;;;;;;0.00;0.00;;;3.20;90.10;;;;;;4116431;28;20546;-61
2021/12/04 00:53:40;;;;;;;0.00;0.00;;;3.20;90.10;;;;;;4130070;28;20129;-62
2021/12/04 00:56:03;;;;;;;0.00;0.00;;;3.20;90.30;;;;;;4116489;28;20042;-61
2021/12/04 00:58:25;;;;;;;0.00;0.00;;;3.20;90.30;;;;;;4116352;28;20050;-52
2021/12/04 01:00:48;;;;;;;0.00;0.00;;;2.90;90.70;;;;;;4129805;28;20061;-61
2021/12/04 01:03:11;;;;;;;0.00;0.00;;;2.80;91.10;;;;;;4116702;28;20134;-57
2021/12/04 01:05:34;;;;;;;0.00;0.00;;;2.60;91.40;;;;;;4116492;28;20050;-57
2021/12/04 01:07:56;;;;;;;0.00;0.00;;;2.60;91.60;;;;;;4129727;28;20088;-59
2021/12/04 01:10:18;;;;;;;0.00;0.00;;;2.70;91.60;;;;;;4115866;28;20084;-61
2021/12/04 01:12:42;;;;;;;0.00;0.00;;;2.50;91.70;;;;;;4116452;28;20043;-63
2021/12/04 01:15:06;;;;;;;0.00;0.00;;;2.30;92.00;;;;;;4115933;28;20042;-60
2021/12/04 01:17:28;;;;;;;0.00;0.00;;;2.30;92.30;;;;;;4116144;28;20461;-61
2021/12/04 01:19:51;;;;;;;0.00;0.00;;;2.40;92.30;;;;;;4116243;28;20051;-62
2021/12/04 01:22:13;;;;;;;0.00;0.00;;;2.30;92.40;;;;;;4115472;28;20046;-62
2021/12/04 01:24:35;;;;;;;0.00;0.00;;;2.30;92.50;;;;;;4116224;28;20405;-61
2021/12/04 01:26:58;;;;;;;0.00;0.00;;;2.20;92.60;;;;;;4129730;28;20049;-63
2021/12/04 01:29:20;;;;;;;0.00;0.00;;;2.10;92.80;;;;;;4116178;28;20050;-56
2021/12/04 01:31:44;;;;;;;0.00;0.00;;;2.10;93.00;;;;;;4129178;28;20049;-56
2021/12/04 01:34:06;;;;;;;0.00;0.00;;;2.00;93.30;;;;;;4116109;28;20050;-62
2021/12/04 01:36:29;;;;;;;0.00;0.00;;;2.10;93.40;;;;;;4128953;28;20073;-62
2021/12/04 01:38:52;;;;;;;0.00;0.00;;;2.10;93.50;;;;;;4129586;28;20046;-63
2021/12/04 01:41:14;;;;;;;0.00;0.00;;;2.10;93.60;;;;;;4102040;28;20061;-62
2021/12/04 01:43:37;;;;;;;0.00;0.00;;;2.20;93.60;;;;;;4115929;28;20049;-63
2021/12/04 01:46:00;;;;;;;0.00;0.00;;;2.20;93.60;;;;;;4115814;28;20109;-61
2021/12/04 01:48:23;;;;;;;0.00;0.00;;;2.10;93.70;;;;;;4114724;28;20055;-58
2021/12/04 01:50:47;;;;;;;0.00;0.00;;;2.10;93.90;;;;;;4129294;28;20531;-62
2021/12/04 01:53:09;;;;;;;0.00;0.00;;;2.10;93.80;;;;;;4115951;28;20050;-62
2021/12/04 01:55:35;;;;;;;0.00;0.00;;;2.20;93.80;;;;;;4129325;28;20056;-62
2021/12/04 01:58:01;;;;;;;0.00;0.00;;;2.20;93.70;;;;;;4115845;28;20086;-62
2021/12/04 02:00:24;;;;;;;0.00;0.00;;;2.20;93.70;;;;;;4115507;28;20081;-60
2021/12/04 02:02:54;;;;;;;0.00;0.00;;;2.20;93.70;;;;;;4113201;28;20133;-62
2021/12/04 02:05:17;;;;;;;0.00;0.00;;;2.20;93.70;;;;;;4099824;28;20058;-53
2021/12/04 02:07:39;;;;;;;0.00;0.00;;;2.30;93.70;;;;;;4099817;28;20051;-59
2021/12/04 02:10:04;;;;;;;0.00;0.00;;;2.40;93.60;;;;;;4099815;28;20051;-60
2021/12/04 02:12:26;;;;;;;0.00;0.00;;;2.30;93.60;;;;;;4099182;28;20421;-58
2021/12/04 02:14:49;;;;;;;0.00;0.00;;;2.40;93.60;;;;;;4099938;28;20128;-50
2021/12/04 02:17:11;;;;;;;0.00;0.00;;;2.60;93.50;;;;;;4099285;28;20047;-55
2021/12/04 02:19:33;;;;;;;0.00;0.00;;;2.70;93.30;;;;;;4099690;28;20051;-48
2021/12/04 02:21:56;;;;;;;0.00;0.00;;;2.90;93.10;;;;;;4086149;28;20055;-49
2021/12/04 02:24:18;;;;;;;0.00;0.00;;;3.00;92.80;;;;;;4099204;28;20055;-48
2021/12/04 02:26:40;;;;;;;0.00;0.00;;;3.10;92.60;;;;;;4086378;28;20043;-50
2021/12/04 02:29:03;;;;;;;0.00;0.00;;;3.00;92.40;;;;;;4099513;28;20054;-52
2021/12/04 02:31:26;;;;;;;0.00;0.00;;;3.00;92.60;;;;;;4099323;28;20121;-53
2021/12/04 02:33:49;;;;;;;0.00;0.00;;;3.10;92.40;;;;;;4099626;28;20122;-53
2021/12/04 02:36:11;;;;;;;0.00;0.00;;;2.90;92.30;;;;;;4099531;28;20044;-53
2021/12/04 02:38:34;;;;;;;0.00;0.00;;;2.70;92.60;;;;;;4099196;28;20059;-53
2021/12/04 02:41:00;;;;;;;0.00;0.00;;;2.50;93.00;;;;;;4099355;28;20055;-53
2021/12/04 02:43:23;;;;;;;0.00;0.00;;;2.40;93.20;;;;;;4099545;28;20420;-52
2021/12/04 02:45:45;;;;;;;0.00;0.00;;;2.50;93.40;;;;;;4099532;28;20082;-53
2021/12/04 02:48:07;;;;;;;0.00;0.00;;;2.40;93.50;;;;;;4099394;28;20066;-55
2021/12/04 02:50:29;;;;;;;0.00;0.00;;;2.50;93.50;;;;;;4099038;28;20059;-55
2021/12/04 02:52:52;;;;;;;0.00;0.00;;;2.40;93.70;;;;;;4099307;28;20039;-55
2021/12/04 02:55:17;;;;;;;0.00;0.00;;;2.40;93.80;;;;;;4099612;28;20130;-53
2021/12/04 02:57:44;;;;;;;0.00;0.00;;;2.40;94.10;;;;;;4099227;28;20055;-54
2021/12/04 03:00:08;;;;;;;0.00;0.00;;;2.30;94.10;;;;;;4101240;28;20138;-61
2021/12/04 03:02:36;;;;;;;0.00;0.00;;;2.40;94.20;;;;;;4116776;28;20424;-59
2021/12/04 03:05:01;;;;;;;0.00;0.00;;;2.40;94.20;;;;;;4131642;28;20042;-60
2021/12/04 03:07:24;;;;;;;0.00;0.00;;;2.30;94.30;;;;;;4118044;28;20055;-60
2021/12/04 03:09:49;;;;;;;0.00;0.00;;;2.30;94.40;;;;;;4131494;28;20101;-60
2021/12/04 03:12:12;;;;;;;0.00;0.00;;;2.40;94.40;;;;;;4131427;28;20097;-59
2021/12/04 03:14:35;;;;;;;0.00;0.00;;;2.30;94.40;;;;;;4117734;28;20043;-60
2021/12/04 03:16:57;;;;;;;0.00;0.00;;;2.20;94.40;;;;;;4117701;28;20058;-60
2021/12/04 03:19:20;;;;;;;0.00;0.00;;;2.20;94.40;;;;;;4118066;28;20079;-57
2021/12/04 03:21:42;;;;;;;0.00;0.00;;;2.30;94.60;;;;;;4130442;28;20401;-61
2021/12/04 03:24:12;;;;;;;0.00;0.00;;;2.30;94.40;;;;;;4117077;28;20039;-53
2021/12/04 03:26:37;;;;;;;0.00;0.00;;;2.30;94.40;;;;;;4116749;28;20042;-55
2021/12/04 03:29:03;;;;;;;0.00;0.00;;;2.30;94.30;;;;;;4116919;28;20444;-57
2021/12/04 03:42:10;;;;;;;0.00;0.00;;;2.80;93.90;;;;;;4101537;28;20086;-49
2021/12/04 03:44:32;;;;;;;0.00;0.00;;;2.80;93.80;;;;;;4101095;28;20051;-52
2021/12/04 03:46:55;;;;;;;0.00;0.00;;;2.80;93.80;;;;;;4101463;28;20126;-51
2021/12/04 03:49:17;;;;;;;0.00;0.00;;;2.70;93.90;;;;;;4101349;28;20103;-46
2021/12/04 03:51:39;;;;;;;0.00;0.00;;;2.60;94.00;;;;;;4101344;28;20472;-48
2021/12/04 03:54:02;;;;;;;0.00;0.00;;;2.50;94.40;;;;;;4114769;28;20050;-51
2021/12/04 03:56:24;;;;;;;0.00;0.00;;;2.40;94.60;;;;;;4114543;28;20170;-46
2021/12/04 03:58:47;;;;;;;0.00;0.00;;;2.30;94.80;;;;;;4101389;28;20039;-48
2021/12/04 04:01:09;;;;;;;0.00;0.00;;;2.30;95.20;;;;;;4104976;28;20103;-47
2021/12/04 04:03:32;;;;;;;0.00;0.00;;;2.40;95.30;;;;;;4117318;28;20499;-48
2021/12/04 04:05:54;;;;;;;0.00;0.00;;;2.50;95.20;;;;;;4117226;28;20144;-48
2021/12/04 04:08:17;;;;;;;0.00;0.00;;;2.70;95.00;;;;;;4116534;28;20643;-46
2021/12/04 04:10:41;;;;;;;0.00;0.00;;;2.80;94.80;;;;;;4116494;28;20498;-46
2021/12/04 04:13:07;;;;;;;0.00;0.00;;;3.00;94.60;;;;;;4117432;28;20551;-48
2021/12/04 04:15:30;;;;;;;0.00;0.00;;;3.10;94.50;;;;;;4117971;28;20054;-53
2021/12/04 04:17:52;;;;;;;0.00;0.00;;;3.00;94.40;;;;;;4116887;28;20057;-52
2021/12/04 04:20:17;;;;;;;0.00;0.00;;;3.00;94.60;;;;;;4116722;28;20415;-46
2021/12/04 04:22:40;;;;;;;0.00;0.00;;;2.90;94.60;;;;;;4117106;28;20133;-46
2021/12/04 04:25:02;;;;;;;0.00;0.00;;;2.80;94.70;;;;;;4116977;28;20042;-50
2021/12/04 04:27:25;;;;;;;0.00;0.00;;;2.70;94.90;;;;;;4116996;28;20059;-51
2021/12/04 04:29:48;;;;;;;0.00;0.00;;;2.70;95.10;;;;;;4116715;28;20058;-51
2021/12/04 04:32:10;;;;;;;0.00;0.00;;;2.70;95.10;;;;;;4115830;28;20068;-48
2021/12/04 04:34:34;;;;;;;0.00;0.00;;;2.80;95.10;;;;;;4116353;28;20051;-50
2021/12/04 04:37:20;;;;;;;0.00;0.00;;;2.90;95.10;;;;;;4116724;28;20133;-46
2021/12/04 05:11:58;;;;;;;0.00;0.00;;;3.10;95.10;;;;;;4129582;28;20050;-60
2021/12/04 05:14:20;;;;;;;0.00;0.00;;;3.20;95.00;;;;;;4129304;28;20062;-61
2021/12/04 05:16:50;;;;;;;0.00;0.00;;;3.20;94.90;;;;;;4116235;28;20034;-62
2021/12/04 05:19:26;;;;;;;0.00;0.00;;;3.20;94.80;;;;;;4116212;28;20116;-61
2021/12/04 05:21:48;;;;;;;0.00;0.00;;;3.20;94.70;;;;;;4116005;28;20536;-62
2021/12/04 05:24:10;;;;;;;0.00;0.00;;;3.20;94.90;;;;;;4115520;28;20054;-62
2021/12/04 05:26:32;;;;;;;0.00;0.00;;;3.20;94.80;;;;;;4115778;28;20085;-62
2021/12/04 05:28:58;;;;;;;0.00;0.00;;;3.20;95.00;;;;;;4116311;28;20084;-63
2021/12/04 05:31:21;;;;;;;0.00;0.00;;;3.10;95.00;;;;;;4109735;28;20075;-57
2021/12/04 05:33:44;;;;;;;0.00;0.00;;;3.20;95.20;;;;;;4099924;28;20051;-62
2021/12/04 05:36:07;;;;;;;0.00;0.00;;;3.20;95.10;;;;;;4099840;28;20043;-63
2021/12/04 05:38:30;;;;;;;0.00;0.00;;;3.10;95.20;;;;;;4099580;28;20090;-62
2021/12/04 05:40:52;;;;;;;0.00;0.00;;;3.00;95.40;;;;;;4099806;28;20054;-62
2021/12/04 05:43:16;;;;;;;0.00;0.00;;;3.00;95.70;;;;;;4100162;28;20063;-60
2021/12/04 05:45:43;;;;;;;0.00;0.00;;;2.90;95.70;;;;;;4099859;28;20055;-56
2021/12/04 05:48:17;;;;;;;0.00;0.00;;;2.90;95.90;;;;;;4099957;28;20051;-63
2021/12/04 05:53:23;;;;;;;0.00;0.00;;;2.90;96.10;;;;;;4099813;28;20062;-58
2021/12/04 05:56:07;;;;;;;0.00;0.00;;;2.90;96.20;;;;;;4099748;28;20044;-55
2021/12/04 05:58:30;;;;;;;0.00;0.00;;;2.90;96.30;;;;;;4099472;28;20053;-59
2021/12/04 06:00:54;;;;;;;0.00;0.00;;;2.80;96.40;;;;;;4100481;28;20098;-54
2021/12/04 06:03:17;;;;;;;0.00;0.00;;;2.90;96.50;;;;;;4115746;28;20098;-52
2021/12/04 06:05:40;;;;;;;0.00;0.00;;;2.90;96.60;;;;;;4115579;28;20055;-63
2021/12/04 06:08:02;;;;;;;0.00;0.00;;;2.90;96.50;;;;;;4115738;28;20057;-59
2021/12/04 06:10:24;;;;;;;0.00;0.00;;;3.00;96.70;;;;;;4115192;28;20520;-51
2021/12/04 06:12:46;;;;;;;0.00;0.00;;;3.10;96.50;;;;;;4115867;28;20141;-58
2021/12/04 06:15:09;;;;;;;0.00;0.00;;;3.20;96.50;;;;;;4128980;28;20097;-53
2021/12/04 06:17:31;;;;;;;0.00;0.00;;;3.20;96.40;;;;;;4115367;28;20051;-57
2021/12/04 06:22:37;;;;;;;0.00;0.00;;;3.20;96.40;;;;;;4115233;28;20051;-62
2021/12/04 06:25:00;;;;;;;0.00;0.00;;;3.20;96.40;;;;;;4115656;28;20047;-50
2021/12/04 06:27:23;;;;;;;0.00;0.00;;;3.20;96.50;;;;;;4115619;28;20090;-52
2021/12/04 06:29:45;;;;;;;0.00;0.00;;;3.30;96.50;;;;;;4115642;28;20051;-63
2021/12/04 06:32:07;;;;;;;0.00;0.00;;;3.30;96.60;;;;;;4115433;28;20078;-63
2021/12/04 06:34:30;;;;;;;0.00;0.00;;;3.30;96.40;;;;;;4116192;28;20047;-60
2021/12/04 06:36:52;;;;;;;0.00;0.00;;;3.40;96.50;;;;;;4118694;28;20060;-61
2021/12/04 06:39:15;;;;;;;0.00;0.00;;;3.50;96.40;;;;;;4118585;28;20583;-63
2021/12/04 06:41:37;;;;;;;0.00;0.00;;;3.50;96.50;;;;;;4118309;28;20069;-62
2021/12/04 06:43:59;;;;;;;0.00;0.00;;;3.50;96.40;;;;;;4118541;28;20098;-61
2021/12/04 06:46:22;;;;;;;0.00;0.00;;;3.60;96.20;;;;;;4104501;28;20386;-56
2021/12/04 06:53:41;;;;;;;0.00;0.00;;;3.60;96.30;;;;;;4115823;28;20472;-60
2021/12/04 06:56:06;;;;;;;0.00;0.00;;;3.70;96.20;;;;;;4115477;28;20050;-63
2021/12/04 06:58:29;;;;;;;0.00;0.00;;;3.60;96.10;;;;;;4101820;28;20051;-55
2021/12/04 07:00:53;;;;;;;0.00;0.00;;;3.60;96.20;;;;;;4105859;28;20074;-60
2021/12/04 07:03:17;;;;;;;0.00;0.00;;;3.70;96.40;;;;;;4089111;28;20058;-49
2021/12/04 07:05:39;;;;;;;0.00;0.00;;;3.70;96.20;;;;;;4102341;28;20050;-61
2021/12/04 07:08:04;;;;;;;0.00;0.00;;;3.70;96.10;;;;;;4115679;28;20170;-62
2021/12/04 07:10:27;;;;;;;0.00;0.00;;;3.70;96.20;;;;;;4101609;28;20051;-61
2021/12/04 07:12:49;;;;;;;0.00;0.00;;;3.60;96.30;;;;;;4102105;28;20468;-50
2021/12/04 07:15:12;;;;;;;0.00;0.00;;;3.60;96.50;;;;;;4115542;28;20168;-62
2021/12/04 07:17:35;;;;;;;0.00;0.00;;;3.50;96.60;;;;;;4088667;28;20070;-54
2021/12/04 07:19:57;;;;;;;0.00;0.00;;;3.60;96.60;;;;;;4120716;28;20108;-59
2021/12/04 07:22:20;;;;;;;0.00;0.00;;;3.80;96.60;;;;;;4125395;28;20047;-51
2021/12/04 07:24:42;;;;;;;0.00;0.00;;;3.90;96.40;;;;;;4126815;28;20069;-47
2021/12/04 07:27:06;;;;;;;0.00;0.00;;;4.10;96.20;;;;;;4147649;28;20085;-49
2021/12/04 07:29:28;;;;;;;0.00;0.00;;;4.10;96.10;;;;;;4121040;28;20500;-58
2021/12/04 07:31:50;;;;;;;0.00;0.00;;;4.20;96.00;;;;;;4116592;28;20051;-46
2021/12/04 07:34:13;;;;;;;0.00;0.00;;;4.30;95.90;;;;;;4117339;28;20051;-57
2021/12/04 07:36:39;;;;;;;0.00;0.00;;;4.20;95.80;;;;;;4117614;28;20073;-60
2021/12/04 07:39:04;;;;;;;0.00;0.00;;;4.20;95.70;;;;;;4104488;28;20038;-49
2021/12/04 07:41:28;;;;;;;0.00;0.00;;;4.10;95.80;;;;;;4117248;28;20106;-55
2021/12/04 07:43:51;;;;;;;0.00;0.00;;;4.00;96.00;;;;;;4117437;28;20049;-57
2021/12/04 07:46:13;;;;;;;0.00;0.00;;;3.90;96.10;;;;;;4116198;28;20110;-61
2021/12/04 07:48:35;;;;;;;0.00;0.00;;;3.80;96.30;;;;;;4117572;28;20385;-56
2021/12/04 07:51:01;;;;;;;0.00;0.00;;;3.90;96.40;;;;;;4117168;28;20054;-59
2021/12/04 07:53:23;;;;;;;0.00;0.00;;;3.80;96.40;;;;;;4117584;28;20101;-60
2021/12/04 07:55:46;;;;;;;0.00;0.00;;;3.80;96.50;;;;;;4114841;28;20476;-61
2021/12/04 07:58:10;;;;;;;0.00;0.00;;;3.80;96.60;;;;;;4101117;28;20055;-58
2021/12/04 08:00:33;;;;;;;0.00;0.00;;;3.90;96.60;;;;;;4099316;28;20051;-61
2021/12/04 08:03:01;;;;;;;0.00;0.00;;;3.90;96.60;;;;;;4114484;28;20043;-58
2021/12/04 08:05:24;;;;;;;0.00;0.00;;;4.00;96.70;;;;;;4101287;28;20051;-53
2021/12/04 08:07:46;;;;;;;0.00;0.00;;;4.10;96.50;;;;;;4101373;28;20131;-59
2021/12/04 08:10:12;;;;;;;0.00;0.00;;;4.10;96.50;;;;;;4114603;28;20055;-56
2021/12/04 08:12:35;;;;;;;0.00;0.00;;;4.10;96.60;;;;;;4100681;28;20127;-62
2021/12/04 08:15:01;;;;;;;0.00;0.00;;;4.00;96.70;;;;;;4125139;28;20407;-53
2021/12/04 08:17:38;;;;;;;0.00;0.00;;;4.00;96.90;;;;;;4120347;28;20093;-54
2021/12/04 08:20:15;;;;;;;0.00;0.00;;;3.90;96.90;;;;;;4146485;28;20042;-57
2021/12/04 08:22:48;;;;;;;0.00;0.00;;;4.00;97.00;;;;;;4129061;28;20054;-53
2021/12/04 08:25:19;;;;;;;0.00;0.00;;;4.00;96.80;;;;;;4117083;28;20049;-56
2021/12/04 08:27:53;;;;;;;0.00;0.00;;;4.00;96.80;;;;;;4116909;28;20068;-53
2021/12/04 08:30:24;;;;;;;0.00;0.00;;;4.00;96.90;;;;;;4116429;28;20074;-57
2021/12/04 08:32:52;;;;;;;0.00;0.00;;;3.90;97.10;;;;;;4131829;28;20507;-60
2021/12/04 08:35:23;;;;;;;0.00;0.00;;;3.90;97.30;;;;;;4132760;28;20050;-62
2021/12/04 08:37:58;;;;;;;0.00;0.00;;;3.90;97.30;;;;;;4132501;28;20523;-58
2021/12/04 08:40:30;;;;;;;0.00;0.00;;;4.00;97.40;;;;;;4132273;28;20638;-59
2021/12/04 08:43:01;;;;;;;0.00;0.00;;;4.00;97.40;;;;;;4132794;28;20523;-60
2021/12/04 08:45:36;;;;;;;0.00;0.00;;;3.90;97.50;;;;;;4132889;28;20113;-60
2021/12/04 08:48:06;;;;;;;0.00;0.00;;;4.00;97.50;;;;;;4131993;28;20602;-59
2021/12/04 08:51:27;;;;;;;0.00;0.00;;;3.90;97.30;;;;;;4222946;27;20431;-58
2021/12/04 08:54:09;;;;;;;0.00;0.00;;;4.00;97.80;;;;;;4177540;28;20057;-57
2021/12/04 08:56:44;;;;;;;0.00;0.00;;;4.00;97.80;;;;;;4165897;28;20046;-55
2021/12/04 08:59:14;;;;;;;0.00;0.00;;;4.00;97.80;;;;;;4178676;28;20041;-61
2021/12/04 09:01:44;;;;;;;0.00;0.00;;;4.00;97.80;;;;;;4178500;28;20065;-56
2021/12/04 09:04:20;;;;;;;0.00;0.00;;;3.90;97.80;;;;;;4178743;28;20045;-60
2021/12/04 09:06:46;;;;;;;0.00;0.00;;;4.00;97.90;;;;;;4178253;28;20124;-59
2021/12/04 09:09:11;;;;;;;0.00;0.00;;;4.10;97.80;;;;;;4178649;28;20116;-54
2021/12/04 09:11:39;;;;;;;0.00;0.00;;;4.00;97.80;;;;;;4178321;28;20049;-54
2021/12/04 09:14:03;;;;;;;0.00;0.00;;;4.00;97.80;;;;;;4178527;28;20042;-54
2021/12/04 09:16:25;;;;;;;0.00;0.00;;;4.10;98.00;;;;;;4162402;28;20061;-55
2021/12/04 09:18:48;;;;;;;0.00;0.00;;;4.10;97.90;;;;;;4161265;28;20053;-55
2021/12/04 09:21:11;;;;;;;0.00;0.00;;;4.20;97.70;;;;;;4161720;28;20055;-54
2021/12/04 09:23:36;;;;;;;0.00;0.00;;;4.20;97.70;;;;;;4161772;28;20108;-57
2021/12/04 09:26:02;;;;;;;0.00;0.00;;;4.20;97.70;;;;;;4148469;28;20129;-57
2021/12/04 09:28:46;;;;;;;0.00;0.00;;;4.20;97.70;;;;;;4161325;28;20053;-56
2021/12/04 09:34:04;;;;;;;0.00;0.00;;;4.10;97.70;;;;;;4147945;28;20049;-53
2021/12/04 10:00:51;;;;;;;0.00;0.00;;;4.40;97.90;;;;;;4174663;28;20405;-54
2021/12/04 10:11:44;;;;;;;0.00;0.00;;;4.50;98.20;;;;;;4163873;28;20053;-57
2021/12/04 10:24:58;;;;;;;0.00;0.00;;;4.50;98.20;;;;;;4160568;28;20046;-55
2021/12/04 10:33:19;;;;;;;0.00;0.00;;;4.70;98.20;;;;;;4163630;28;20454;-59
2021/12/04 10:35:41;;;;;;;0.00;0.00;;;4.80;97.80;;;;;;4163847;28;20522;-60
2021/12/04 10:38:08;;;;;;;0.00;0.00;;;4.90;97.70;;;;;;4163862;28;20115;-56
2021/12/04 10:40:43;;;;;;;0.00;0.00;;;5.00;97.60;;;;;;4163334;28;20051;-55
2021/12/04 10:43:14;;;;;;;0.00;0.00;;;5.00;97.40;;;;;;4163752;28;20168;-54
2021/12/04 10:45:41;;;;;;;0.00;0.00;;;5.10;97.30;;;;;;4163703;28;20417;-58
2021/12/04 10:48:11;;;;;;;0.00;0.00;;;5.20;97.20;;;;;;4149959;28;20062;-56
2021/12/04 10:50:48;;;;;;;0.00;0.00;;;5.20;97.00;;;;;;4162653;28;20069;-54
2021/12/04 10:53:22;;;;;;;0.00;0.00;;;5.20;97.00;;;;;;4163458;28;20045;-60
2021/12/04 11:00:41;;;;;;;0.00;0.00;;;5.30;96.80;;;;;;4149687;28;20041;-55
2021/12/04 11:06:19;;;;;;;0.00;0.00;;;5.40;96.60;;;;;;4177294;28;20071;-54
2021/12/04 11:22:33;;;;;;;0.00;0.00;;;5.60;96.40;;;;;;4162496;28;20052;-59
2021/12/04 11:26:30;;;;;;;0.00;0.00;;;5.60;96.20;;;;;;4176926;28;20068;-52
2021/12/04 11:28:45;;;;;;;0.00;0.00;;;5.50;96.20;;;;;;4131454;28;20050;-54
2021/12/04 11:44:55;;;;;;;0.00;0.00;;;5.70;96.70;;;;;;4130969;28;20046;-53
2021/12/04 11:47:17;;;;;;;0.00;0.00;;;5.80;96.50;;;;;;4145386;28;20065;-54
2021/12/04 11:49:42;;;;;;;0.00;0.00;;;6.00;96.50;;;;;;4131223;28;20491;-56
2021/12/04 11:52:17;;;;;;;0.00;0.00;;;6.00;96.60;;;;;;4131391;28;20053;-58
2021/12/04 11:54:48;;;;;;;0.00;0.00;;;6.00;96.60;;;;;;4131226;28;20499;-62
2021/12/04 11:57:12;;;;;;;0.00;0.00;;;6.10;96.70;;;;;;4131768;28;20042;-62
2021/12/04 11:59:37;;;;;;;0.00;0.00;;;6.10;96.60;;;;;;4131301;28;20154;-54
2021/12/04 12:02:02;;;;;;;0.00;0.00;;;6.20;96.70;;;;;;4144785;28;20635;-61
2021/12/04 12:04:41;;;;;;;0.00;0.00;;;6.20;96.60;;;;;;4161951;28;20133;-58
2021/12/04 12:07:20;;;;;;;0.00;0.00;;;6.20;96.70;;;;;;4162397;28;20041;-58
2021/12/04 12:09:43;;;;;;;0.00;0.00;;;6.20;96.50;;;;;;4162289;28;20053;-51
2021/12/04 12:12:08;;;;;;;0.00;0.00;;;6.30;96.40;;;;;;4148423;28;20049;-53
2021/12/04 12:14:55;;;;;;;0.00;0.00;;;6.30;96.50;;;;;;4161631;28;20058;-58
2021/12/04 12:17:31;;;;;;;0.00;0.00;;;6.20;96.60;;;;;;4162084;28;20049;-54
2021/12/04 12:19:53;;;;;;;0.00;0.00;;;6.10;96.80;;;;;;4162070;28;20054;-53
2021/12/04 12:25:16;;;;;;;0.00;0.00;;;6.20;97.20;;;;;;4161803;28;20435;-58
2021/12/04 12:27:57;;;;;;;0.00;0.00;;;6.30;96.90;;;;;;4162027;28;20053;-62
2021/12/04 12:33:24;;;;;;;0.00;0.00;;;6.40;96.70;;;;;;4161919;28;20411;-61
2021/12/04 12:36:03;;;;;;;0.00;0.00;;;6.30;96.80;;;;;;4161802;28;20104;-58
2021/12/04 12:38:50;;;;;;;0.00;0.00;;;6.40;96.90;;;;;;4161617;28;20394;-58
2021/12/04 12:41:31;;;;;;;0.00;0.00;;;6.40;97.10;;;;;;4161792;28;20057;-61
2021/12/04 12:44:09;;;;;;;0.00;0.00;;;6.40;97.00;;;;;;4161947;28;20103;-62
2021/12/04 12:46:38;;;;;;;0.00;0.00;;;6.40;97.10;;;;;;4161486;28;20099;-59
2021/12/04 12:49:03;;;;;;;0.00;0.00;;;6.40;97.10;;;;;;4161946;28;20084;-62
2021/12/04 12:51:34;;;;;;;0.00;0.00;;;6.50;97.00;;;;;;4161328;28;20069;-61
2021/12/04 12:53:58;;;;;;;0.00;0.00;;;6.40;97.00;;;;;;4161817;28;20050;-61
2021/12/04 12:56:25;;;;;;;0.00;0.00;;;6.40;97.00;;;;;;4161631;28;20057;-58
2021/12/04 12:59:09;;;;;;;0.00;0.00;;;6.40;97.00;;;;;;4161850;28;20056;-56
2021/12/04 13:13:41;;;;;;;0.00;0.00;;;5.90;97.90;;;;;;4082744;29;20079;-59
2021/12/04 13:16:17;;;;;;;0.00;0.00;;;5.80;98.20;;;;;;4082627;29;20044;-57
2021/12/04 13:18:44;;;;;;;0.00;0.00;;;5.80;98.40;;;;;;4082357;29;20044;-61
2021/12/04 13:21:10;;;;;;;0.00;0.00;;;5.80;98.60;;;;;;4082628;29;20062;-62
2021/12/04 13:23:33;;;;;;;0.00;0.00;;;5.70;98.70;;;;;;4082916;29;20453;-62
2021/12/04 13:25:59;;;;;;;0.00;0.00;;;5.70;98.80;;;;;;4069558;29;20059;-59
2021/12/04 13:28:25;;;;;;;0.00;0.00;;;5.70;98.90;;;;;;4067813;29;20629;-61
2021/12/04 13:30:48;;;;;;;0.00;0.00;;;5.70;99.00;;;;;;4082258;29;20048;-61
2021/12/04 13:33:11;;;;;;;0.00;0.00;;;5.60;99.20;;;;;;4069554;29;20067;-62
2021/12/04 13:35:36;;;;;;;0.00;0.00;;;5.60;99.40;;;;;;4082761;28;20062;-61
2021/12/04 13:38:02;;;;;;;0.00;0.00;;;5.70;99.40;;;;;;4085296;29;20114;-60
2021/12/04 13:40:27;;;;;;;0.00;0.00;;;5.70;99.30;;;;;;4085315;29;20533;-62
2021/12/04 13:42:49;;;;;;;0.00;0.00;;;5.60;99.50;;;;;;4085883;29;20040;-62
2021/12/04 13:45:14;;;;;;;0.00;0.00;;;5.60;99.50;;;;;;4085725;29;20568;-58
2021/12/04 13:47:38;;;;;;;0.00;0.00;;;5.60;99.70;;;;;;4085525;29;20055;-61
2021/12/04 13:50:06;;;;;;;0.00;0.00;;;5.60;99.80;;;;;;4139046;28;20079;-61
2021/12/04 13:52:32;;;;;;;0.00;0.00;;;5.60;99.80;;;;;;4163862;28;20048;-61
2021/12/04 13:55:11;;;;;;;0.00;0.00;;;5.60;99.90;;;;;;4164544;28;20065;-56
2021/12/04 13:57:38;;;;;;;0.00;0.00;;;5.70;99.90;;;;;;4164330;28;20052;-59
2021/12/04 14:00:02;;;;;;;0.00;0.00;;;5.70;99.90;;;;;;4164297;28;20059;-61
2021/12/04 14:02:28;;;;;;;0.00;0.00;;;5.70;99.80;;;;;;4148907;28;20057;-54
2021/12/04 14:05:07;;;;;;;0.00;0.00;;;5.60;99.80;;;;;;4164269;28;20103;-63
2021/12/04 14:07:31;;;;;;;0.00;0.00;;;5.60;99.80;;;;;;4164252;28;20049;-54
2021/12/04 14:09:53;;;;;;;0.00;0.00;;;5.60;99.90;;;;;;4164354;28;20052;-60
2021/12/04 14:12:16;;;;;;;0.00;0.00;;;5.50;99.90;;;;;;4147609;28;20054;-57
2021/12/04 14:14:38;;;;;;;0.00;0.00;;;5.60;99.90;;;;;;4164411;28;20046;-54
2021/12/04 14:17:11;;;;;;;0.00;0.00;;;5.60;99.90;;;;;;4163957;28;20038;-56
2021/12/04 14:19:34;;;;;;;0.00;0.00;;;5.50;99.90;;;;;;4164237;28;20426;-57
2021/12/04 14:22:12;;;;;;;0.00;0.00;;;5.50;99.90;;;;;;4163795;28;20046;-54
2021/12/04 14:24:44;;;;;;;0.00;0.00;;;5.50;99.90;;;;;;4163813;28;20128;-53
2021/12/04 14:27:06;;;;;;;0.00;0.00;;;5.50;99.90;;;;;;4163983;28;20080;-54
2021/12/04 14:29:34;;;;;;;0.00;0.00;;;5.50;99.90;;;;;;4164099;28;20076;-55
2021/12/04 14:31:56;;;;;;;0.00;0.00;;;5.40;99.80;;;;;;4163094;28;20099;-51
2021/12/04 14:34:21;;;;;;;0.00;0.00;;;5.50;99.90;;;;;;4163521;28;20046;-58
2021/12/04 14:36:44;;;;;;;0.00;0.00;;;5.60;99.80;;;;;;4163868;28;20056;-57
2021/12/04 14:39:06;;;;;;;0.00;0.00;;;5.60;99.70;;;;;;4163746;28;20045;-57
2021/12/04 14:41:30;;;;;;;0.00;0.00;;;5.60;99.60;;;;;;4163468;28;20064;-57
2021/12/04 14:43:53;;;;;;;0.00;0.00;;;5.50;99.50;;;;;;4163752;28;20053;-55
2021/12/04 14:46:18;;;;;;;0.00;0.00;;;5.50;99.50;;;;;;4149780;28;20533;-57
2021/12/04 14:48:51;;;;;;;0.00;0.00;;;5.50;99.40;;;;;;4163750;28;20068;-57
2021/12/04 14:51:17;;;;;;;0.00;0.00;;;5.50;99.40;;;;;;4163218;28;20041;-57
2021/12/04 14:53:48;;;;;;;0.00;0.00;;;5.50;99.30;;;;;;4150408;28;20133;-60
2021/12/04 14:56:10;;;;;;;0.00;0.00;;;5.50;99.10;;;;;;4163543;28;20049;-56
2021/12/04 14:58:33;;;;;;;0.00;0.00;;;5.50;99.10;;;;;;4163204;28;20037;-56
2021/12/04 15:01:03;;;;;;;0.00;0.00;;;5.50;99.20;;;;;;4162919;28;20072;-48
2021/12/04 15:03:45;;;;;;;0.00;0.00;;;5.50;99.00;;;;;;4163363;28;20068;-55
2021/12/04 15:06:11;;;;;;;0.00;0.00;;;5.50;99.10;;;;;;4149544;28;20065;-56
2021/12/04 15:08:39;;;;;;;0.00;0.00;;;5.40;99.00;;;;;;4163167;28;20076;-54
2021/12/04 15:11:04;;;;;;;0.00;0.00;;;5.30;99.00;;;;;;4163202;28;20045;-55
2021/12/04 15:13:30;;;;;;;0.00;0.00;;;5.40;99.10;;;;;;4149623;28;20407;-55
2021/12/04 15:15:57;;;;;;;0.00;0.00;;;5.40;99.00;;;;;;4163320;28;20058;-54
2021/12/04 15:18:24;;;;;;;0.00;0.00;;;5.50;98.90;;;;;;4163008;28;20084;-56
2021/12/04 15:20:55;;;;;;;0.00;0.00;;;5.60;98.70;;;;;;4162848;28;20041;-53
2021/12/04 15:23:22;;;;;;;0.00;0.00;;;5.60;98.60;;;;;;4163103;28;20479;-57
2021/12/04 15:25:47;;;;;;;0.00;0.00;;;5.60;98.70;;;;;;4163177;28;20049;-59
2021/12/04 15:28:19;;;;;;;0.00;0.00;;;5.60;98.70;;;;;;4162994;28;20046;-57
2021/12/04 15:30:48;;;;;;;0.00;0.00;;;5.60;98.60;;;;;;4162042;28;20131;-56
2021/12/04 15:33:36;;;;;;;0.00;0.00;;;5.40;98.60;;;;;;4163088;28;20047;-60
2021/12/04 15:36:23;;;;;;;0.00;0.00;;;5.40;99.00;;;;;;4162575;28;20430;-60
2021/12/04 15:38:53;;;;;;;0.00;0.00;;;5.40;99.10;;;;;;4162806;28;20074;-59
2021/12/04 15:44:26;;;;;;;0.00;0.00;;;5.50;98.90;;;;;;4162730;28;20522;-55
2021/12/04 15:54:39;;;;;;;0.00;0.00;;;5.70;98.90;;;;;;4148568;28;21149;-54
2021/12/04 15:57:21;;;;;;;0.00;0.00;;;5.80;98.80;;;;;;4148836;28;20056;-54